Jump to content

-21° en belgique


Guest

Recommended Posts

C'est une erreur dans les METARs:

 

####018000095####

SPBX31 KWBC 021920^M^M

SPECI^M^M

EBFN 021912Z 23019KT 9999 FEW018 SCT024 BKN060 07/04 Q1000 WHT=^M^M

####018000097####

SPBX31 KWBC 021920^M^M

SPECI^M^M

EBFN 021912Z 23019KT 9999 FEW018 SCT024 BKN060 M21/M23 Q1000 WHT=^M^M

 

.......... Christian Pagé

Link to comment
Share on other sites

Join the conversation

You can post now and register later. If you have an account, sign in now to post with your account.

Guest
Reply to this topic...

×   Pasted as rich text.   Paste as plain text instead

  Only 75 emoji are allowed.

×   Your link has been automatically embedded.   Display as a link instead

×   Your previous content has been restored.   Clear editor

×   You cannot paste images directly. Upload or insert images from URL.

Loading...
×
×
  • Create New...